createdAt,value
2023-05-15T00:00:57.832Z,14.50
2023-05-15T00:03:31.357Z,14.48
2023-05-15T00:06:04.594Z,14.48
2023-05-15T00:08:37.461Z,14.48
2023-05-15T00:11:11.882Z,14.46
2023-05-15T00:13:45.026Z,14.44
2023-05-15T00:16:18.274Z,14.41
2023-05-15T00:18:51.524Z,14.40
2023-05-15T00:21:24.237Z,14.39
2023-05-15T00:23:58.482Z,14.37
2023-05-15T00:26:32.742Z,14.38
2023-05-15T00:29:05.537Z,14.36
2023-05-15T00:31:38.637Z,14.38
2023-05-15T00:34:11.728Z,14.38
2023-05-15T00:36:45.123Z,14.40
2023-05-15T00:39:18.332Z,14.40
2023-05-15T00:41:53.615Z,14.42
2023-05-15T00:44:27.891Z,14.43
2023-05-15T00:47:00.799Z,14.45
2023-05-15T00:49:36.193Z,14.44
2023-05-15T00:52:09.076Z,14.46
2023-05-15T00:54:42.331Z,14.46
2023-05-15T00:57:17.599Z,14.49
2023-05-15T00:59:51.070Z,14.50
2023-05-15T01:02:23.924Z,14.50
2023-05-15T01:04:56.869Z,14.53
2023-05-15T01:07:31.855Z,14.53
2023-05-15T01:10:04.840Z,14.54
2023-05-15T01:12:41.480Z,14.55
2023-05-15T01:15:14.439Z,14.55
2023-05-15T01:17:47.646Z,14.56
2023-05-15T01:20:21.717Z,14.57
2023-05-15T01:23:06.263Z,14.58
2023-05-15T01:26:03.068Z,14.59
2023-05-15T01:28:40.228Z,14.58
2023-05-15T01:31:17.695Z,14.58
2023-05-15T01:33:55.690Z,14.59
2023-05-15T01:36:34.551Z,14.59
2023-05-15T01:39:08.749Z,14.59
2023-05-15T01:41:44.116Z,14.58
2023-05-15T01:44:20.381Z,14.59
2023-05-15T01:46:56.986Z,14.56
2023-05-15T01:49:32.193Z,14.58
2023-05-15T01:52:08.268Z,14.55
2023-05-15T01:54:41.719Z,14.54
2023-05-15T01:57:16.641Z,14.52
2023-05-15T01:59:52.055Z,14.51
2023-05-15T02:02:25.293Z,14.48
2023-05-15T02:04:59.375Z,14.46
2023-05-15T02:07:33.124Z,14.43
2023-05-15T02:10:07.191Z,14.40
2023-05-15T02:12:41.099Z,14.38
2023-05-15T02:15:15.375Z,14.34
2023-05-15T02:17:48.834Z,14.30
2023-05-15T02:20:22.213Z,14.28
2023-05-15T02:22:55.644Z,14.26
2023-05-15T02:25:34.312Z,14.24
2023-05-15T02:28:08.427Z,14.21
2023-05-15T02:30:47.736Z,14.18
2023-05-15T02:33:23.320Z,14.17
2023-05-15T02:35:58.873Z,14.13
2023-05-15T02:38:34.503Z,14.13
2023-05-15T02:41:08.038Z,14.08
2023-05-15T02:43:41.563Z,14.06
2023-05-15T02:46:16.346Z,14.04
2023-05-15T02:48:50.076Z,14.01
2023-05-15T02:51:23.317Z,13.98
2023-05-15T02:53:56.308Z,13.94
2023-05-15T02:56:29.198Z,13.92
2023-05-15T02:59:02.663Z,13.86
2023-05-15T03:01:37.496Z,13.81
2023-05-15T03:04:11.003Z,13.73
2023-05-15T03:06:44.257Z,13.67
2023-05-15T03:09:18.459Z,13.59
2023-05-15T03:11:52.257Z,13.53
2023-05-15T03:14:25.347Z,13.45
2023-05-15T03:16:59.929Z,13.40
2023-05-15T03:19:32.988Z,13.35
2023-05-15T03:22:06.314Z,13.29
2023-05-15T03:24:39.160Z,13.21
2023-05-15T03:27:12.120Z,13.16
2023-05-15T03:29:45.244Z,13.10
2023-05-15T03:32:20.232Z,13.06
2023-05-15T03:34:53.131Z,12.99
2023-05-15T03:37:26.536Z,12.98
2023-05-15T03:39:59.556Z,12.94
2023-05-15T03:42:32.673Z,12.88
2023-05-15T03:45:06.115Z,12.87
2023-05-15T03:47:40.763Z,12.84
2023-05-15T03:50:14.397Z,12.86
2023-05-15T03:52:47.575Z,12.88
2023-05-15T03:55:20.828Z,12.90
2023-05-15T03:57:55.389Z,12.96
2023-05-15T04:00:28.225Z,13.00
2023-05-15T04:03:02.812Z,13.06
2023-05-15T04:05:36.385Z,13.11
2023-05-15T04:08:11.409Z,13.18
2023-05-15T04:10:44.634Z,13.23
2023-05-15T04:13:17.616Z,13.29
2023-05-15T04:15:51.054Z,13.32
2023-05-15T04:18:25.552Z,13.37
2023-05-15T04:20:58.378Z,13.41
2023-05-15T04:23:31.481Z,13.43
2023-05-15T04:26:04.457Z,13.48
2023-05-15T04:28:37.556Z,13.51
2023-05-15T04:31:10.654Z,13.52
2023-05-15T04:33:45.308Z,13.54
2023-05-15T04:36:18.480Z,13.59
2023-05-15T04:38:51.811Z,13.63
2023-05-15T04:41:24.765Z,13.66
2023-05-15T04:43:58.215Z,13.67
2023-05-15T04:46:35.137Z,13.72
2023-05-15T04:49:09.794Z,13.78
2023-05-15T04:51:43.382Z,13.84
2023-05-15T04:54:16.358Z,13.88
2023-05-15T04:56:49.370Z,13.92
2023-05-15T04:59:22.562Z,13.97
2023-05-15T05:01:55.956Z,14.06
2023-05-15T05:04:30.818Z,14.15
2023-05-15T05:07:05.917Z,14.23
2023-05-15T05:09:39.609Z,14.32
2023-05-15T05:12:13.155Z,14.42
2023-05-15T05:14:46.092Z,14.53
2023-05-15T05:17:19.165Z,14.65
2023-05-15T05:19:53.807Z,14.78
2023-05-15T05:22:26.831Z,14.94
2023-05-15T05:24:59.694Z,15.12
2023-05-15T05:27:32.603Z,15.31
2023-05-15T05:30:06.076Z,15.54
2023-05-15T05:32:39.648Z,15.75
2023-05-15T05:35:14.062Z,15.94
2023-05-15T05:37:47.482Z,16.12
2023-05-15T05:40:20.246Z,16.26
2023-05-15T05:42:53.062Z,16.38
2023-05-15T05:45:26.133Z,16.47
2023-05-15T05:48:00.222Z,16.54
2023-05-15T05:50:34.754Z,16.59
2023-05-15T05:53:07.633Z,16.60
2023-05-15T05:55:40.398Z,16.62
2023-05-15T05:58:18.362Z,16.62
2023-05-15T06:00:57.778Z,16.61
2023-05-15T06:03:31.756Z,16.61
2023-05-15T06:06:07.658Z,16.59
2023-05-15T06:08:40.684Z,16.58
2023-05-15T06:11:13.818Z,16.56
2023-05-15T06:13:46.928Z,16.52
2023-05-15T06:16:19.840Z,16.48
2023-05-15T06:18:53.218Z,16.44
2023-05-15T06:21:27.570Z,16.39
2023-05-15T06:24:00.784Z,16.33
2023-05-15T06:26:33.702Z,16.29
2023-05-15T06:29:06.873Z,16.23
2023-05-15T06:31:40.336Z,16.18
2023-05-15T06:34:13.213Z,16.12
2023-05-15T06:36:47.799Z,16.06
2023-05-15T06:39:20.920Z,16.02
2023-05-15T06:41:58.437Z,15.94
2023-05-15T06:44:31.754Z,15.90
2023-05-15T06:47:05.501Z,15.84
2023-05-15T06:49:38.501Z,15.80
2023-05-15T06:52:13.574Z,15.75
2023-05-15T06:54:47.137Z,15.70
2023-05-15T06:57:21.133Z,15.66
2023-05-15T06:59:54.312Z,15.61
2023-05-15T07:02:27.616Z,15.60
2023-05-15T07:05:00.638Z,15.55
2023-05-15T07:07:35.458Z,15.53
2023-05-15T07:10:09.374Z,15.49
2023-05-15T07:12:42.542Z,15.46
2023-05-15T07:15:18.097Z,15.41
2023-05-15T07:17:51.704Z,15.36
2023-05-15T07:20:27.216Z,15.30
2023-05-15T07:23:04.212Z,15.23
2023-05-15T07:25:37.566Z,15.18
2023-05-15T07:28:11.380Z,15.13
2023-05-15T07:30:44.823Z,15.10
2023-05-15T07:33:17.980Z,15.08
2023-05-15T07:35:52.298Z,15.05
2023-05-15T07:38:26.895Z,15.04
2023-05-15T07:41:00.381Z,15.04
2023-05-15T07:43:33.581Z,15.06
2023-05-15T07:46:06.873Z,15.09
2023-05-15T07:48:40.238Z,15.11
2023-05-15T07:51:13.997Z,15.15
2023-05-15T07:53:48.836Z,15.20
2023-05-15T07:56:21.854Z,15.27
2023-05-15T07:58:55.060Z,15.36
2023-05-15T08:01:29.041Z,15.48
2023-05-15T08:04:03.205Z,15.62
2023-05-15T08:06:37.543Z,15.77
2023-05-15T08:09:13.237Z,15.92
2023-05-15T08:11:46.365Z,16.03
2023-05-15T08:14:19.637Z,16.14
2023-05-15T08:16:52.963Z,16.24
2023-05-15T08:19:25.874Z,16.31
2023-05-15T08:21:58.857Z,16.38
2023-05-15T08:24:33.595Z,16.43
2023-05-15T08:27:06.789Z,16.48
2023-05-15T08:29:40.225Z,16.52
2023-05-15T08:32:13.219Z,16.57
2023-05-15T08:34:46.205Z,16.62
2023-05-15T08:37:19.009Z,16.67
2023-05-15T08:39:54.027Z,16.69
2023-05-15T08:42:34.191Z,16.74
2023-05-15T08:45:08.267Z,16.78
2023-05-15T08:47:42.340Z,16.84
2023-05-15T08:50:16.865Z,16.90
2023-05-15T08:52:51.641Z,17.00
2023-05-15T08:55:27.140Z,17.09
2023-05-15T08:58:00.624Z,17.16
2023-05-15T09:00:35.095Z,17.24
2023-05-15T09:03:08.390Z,17.31
2023-05-15T09:05:41.889Z,17.39
2023-05-15T09:08:16.871Z,17.45
2023-05-15T09:10:53.595Z,17.48
2023-05-15T09:13:26.816Z,17.53
2023-05-15T09:15:59.505Z,17.56
2023-05-15T09:18:34.334Z,17.62
2023-05-15T09:21:26.844Z,17.70
2023-05-15T09:24:17.258Z,17.82
2023-05-15T09:27:03.184Z,17.97
2023-05-15T09:29:37.497Z,18.15
2023-05-15T09:32:11.470Z,18.30
2023-05-15T09:34:45.757Z,18.45
2023-05-15T09:37:29.657Z,18.58
2023-05-15T09:40:09.663Z,18.70
2023-05-15T09:42:43.989Z,18.79
2023-05-15T09:45:19.298Z,18.86
2023-05-15T09:47:52.275Z,18.94
2023-05-15T09:50:26.133Z,19.00
2023-05-15T09:53:00.818Z,19.06
2023-05-15T09:55:35.332Z,19.12
2023-05-15T09:58:11.287Z,19.17
2023-05-15T10:00:48.271Z,19.26
2023-05-15T10:03:22.918Z,19.36
2023-05-15T10:06:00.587Z,19.45
2023-05-15T10:08:34.515Z,19.57
2023-05-15T10:11:07.622Z,19.66
2023-05-15T10:13:41.700Z,19.74
2023-05-15T10:16:15.556Z,19.77
2023-05-15T10:18:49.131Z,19.77
2023-05-15T10:21:23.871Z,19.76
2023-05-15T10:23:58.275Z,19.77
2023-05-15T10:26:33.955Z,19.78
2023-05-15T10:29:09.731Z,19.79
2023-05-15T10:31:43.355Z,19.81
2023-05-15T10:34:16.456Z,19.85
2023-05-15T10:36:51.033Z,19.90
2023-05-15T10:39:24.498Z,20.01
2023-05-15T10:41:57.921Z,20.15
2023-05-15T10:44:32.144Z,20.31
2023-05-15T10:47:06.264Z,20.46
2023-05-15T10:49:39.381Z,20.62
2023-05-15T10:52:12.142Z,20.77
2023-05-15T10:54:45.085Z,20.90
2023-05-15T10:57:17.903Z,21.06
2023-05-15T10:59:52.667Z,21.17
2023-05-15T11:02:26.729Z,21.31
2023-05-15T11:05:00.232Z,21.42
2023-05-15T11:07:33.095Z,21.50
2023-05-15T11:10:29.306Z,21.58
2023-05-15T11:13:03.058Z,21.66
2023-05-15T11:15:44.786Z,21.72
2023-05-15T11:18:17.684Z,21.80
2023-05-15T11:21:11.321Z,21.91
2023-05-15T11:23:44.073Z,22.05
2023-05-15T11:26:16.805Z,22.18
2023-05-15T11:28:49.723Z,22.29
2023-05-15T11:31:30.780Z,22.37
2023-05-15T11:34:06.638Z,22.44
2023-05-15T11:36:39.972Z,22.51
2023-05-15T11:39:12.981Z,22.59
2023-05-15T11:41:45.751Z,22.69
2023-05-15T11:44:21.056Z,22.80
2023-05-15T11:46:56.380Z,22.91
2023-05-15T11:49:29.719Z,23.01
2023-05-15T11:52:02.473Z,23.08
2023-05-15T11:54:35.221Z,23.14
2023-05-15T11:57:08.833Z,23.20
2023-05-15T11:59:41.625Z,23.24
2023-05-15T12:02:17.655Z,23.26
2023-05-15T12:04:51.295Z,23.28
2023-05-15T12:07:24.143Z,23.27
2023-05-15T12:09:56.949Z,23.28
2023-05-15T12:12:29.686Z,23.28
2023-05-15T12:15:03.094Z,23.28
2023-05-15T12:17:37.449Z,23.25
2023-05-15T12:20:12.439Z,23.22
2023-05-15T12:22:45.512Z,23.15
2023-05-15T12:25:18.250Z,23.09
2023-05-15T12:27:51.107Z,23.02
2023-05-15T12:30:24.422Z,22.96
2023-05-15T12:33:00.239Z,22.89
2023-05-15T12:35:34.600Z,22.83
2023-05-15T12:38:07.418Z,22.76
2023-05-15T12:40:40.264Z,22.69
2023-05-15T12:43:14.254Z,22.65
2023-05-15T12:45:47.146Z,22.63
2023-05-15T12:48:21.770Z,22.61
2023-05-15T12:50:54.720Z,22.62
2023-05-15T12:53:27.394Z,22.61
2023-05-15T12:56:00.144Z,22.60
2023-05-15T12:58:32.864Z,22.61
2023-05-15T13:01:05.621Z,22.63
2023-05-15T13:03:40.376Z,22.65
2023-05-15T13:06:13.188Z,22.66
2023-05-15T13:08:47.738Z,22.65
2023-05-15T13:11:20.924Z,22.65
2023-05-15T13:13:55.133Z,22.66
2023-05-15T13:16:29.974Z,22.69
2023-05-15T13:19:04.556Z,22.70
2023-05-15T13:21:37.483Z,22.69
2023-05-15T13:24:10.807Z,22.68
2023-05-15T13:26:43.905Z,22.61
2023-05-15T13:29:16.564Z,22.44
2023-05-15T13:31:49.327Z,22.26
2023-05-15T13:34:23.670Z,21.93
2023-05-15T13:36:56.619Z,21.52
2023-05-15T13:39:29.474Z,21.07
2023-05-15T13:42:02.310Z,20.59
2023-05-15T13:44:35.895Z,20.12
2023-05-15T13:47:08.767Z,19.64
2023-05-15T13:49:43.139Z,19.15
2023-05-15T13:52:16.801Z,18.70
2023-05-15T13:54:49.633Z,18.24
2023-05-15T13:57:22.766Z,17.84
2023-05-15T13:59:55.678Z,17.44
2023-05-15T14:02:29.569Z,17.10
2023-05-15T14:05:04.811Z,16.79
2023-05-15T14:07:37.508Z,16.55
2023-05-15T14:10:11.256Z,16.35
2023-05-15T14:12:44.464Z,16.21
2023-05-15T14:15:18.134Z,16.11
2023-05-15T14:17:50.974Z,16.04
2023-05-15T14:20:25.504Z,16.02
2023-05-15T14:22:59.633Z,16.03
2023-05-15T14:25:32.399Z,16.05
2023-05-15T14:28:05.215Z,16.12
2023-05-15T14:30:38.468Z,16.18
2023-05-15T14:33:11.336Z,16.27
2023-05-15T14:35:46.324Z,16.39
2023-05-15T14:38:19.304Z,16.54
2023-05-15T14:40:52.424Z,16.71
2023-05-15T14:43:26.277Z,16.84
2023-05-15T14:45:59.459Z,16.99
2023-05-15T14:48:34.031Z,17.12
2023-05-15T14:51:08.802Z,17.21
2023-05-15T14:53:41.837Z,17.28
2023-05-15T14:56:14.930Z,17.31
2023-05-15T14:58:49.015Z,17.35
2023-05-15T15:01:21.905Z,17.38
2023-05-15T15:03:54.857Z,17.41
2023-05-15T15:06:29.791Z,17.45
2023-05-15T15:09:02.838Z,17.51
2023-05-15T15:11:36.831Z,17.57
2023-05-15T15:14:09.627Z,17.61
2023-05-15T15:16:44.782Z,17.70
2023-05-15T15:19:19.848Z,17.76
2023-05-15T15:21:54.405Z,17.83
2023-05-15T15:24:28.696Z,17.90
2023-05-15T15:27:01.374Z,17.96
2023-05-15T15:29:34.327Z,18.05
2023-05-15T15:32:07.594Z,18.13
2023-05-15T15:34:40.827Z,18.20
2023-05-15T15:37:15.278Z,18.26
2023-05-15T15:39:49.163Z,18.36
2023-05-15T15:42:23.101Z,18.44
2023-05-15T15:44:56.507Z,18.48
2023-05-15T15:47:32.458Z,18.54
2023-05-15T15:50:05.733Z,18.57
2023-05-15T15:52:39.978Z,18.58
2023-05-15T15:55:12.766Z,18.56
2023-05-15T15:57:46.178Z,18.54
2023-05-15T16:00:19.759Z,18.50
2023-05-15T16:02:53.026Z,18.45
2023-05-15T16:05:25.957Z,18.41
2023-05-15T16:08:00.295Z,18.39
2023-05-15T16:10:33.279Z,18.39
2023-05-15T16:13:06.328Z,18.39
2023-05-15T16:15:39.522Z,18.37
2023-05-15T16:18:12.351Z,18.35
2023-05-15T16:20:45.172Z,18.33
2023-05-15T16:23:21.609Z,18.30
2023-05-15T16:25:54.485Z,18.23
2023-05-15T16:28:27.285Z,18.18
2023-05-15T16:31:00.216Z,18.13
2023-05-15T16:33:33.337Z,18.06
2023-05-15T16:36:06.922Z,18.02
2023-05-15T16:38:41.177Z,17.98
2023-05-15T16:41:14.165Z,17.93
2023-05-15T16:43:46.832Z,17.91
2023-05-15T16:46:19.810Z,17.87
2023-05-15T16:48:52.728Z,17.85
2023-05-15T16:51:25.494Z,17.84
2023-05-15T16:53:59.764Z,17.87
2023-05-15T16:56:32.778Z,17.87
2023-05-15T16:59:05.726Z,17.89
2023-05-15T17:01:38.478Z,17.95
2023-05-15T17:04:11.629Z,18.00
2023-05-15T17:06:44.572Z,18.05
2023-05-15T17:09:18.973Z,18.09
2023-05-15T17:11:51.888Z,18.14
2023-05-15T17:14:24.944Z,18.17
2023-05-15T17:16:58.337Z,18.18
2023-05-15T17:19:31.444Z,18.18
2023-05-15T17:22:04.547Z,18.17
2023-05-15T17:24:49.876Z,18.17
2023-05-15T17:27:23.715Z,18.15
2023-05-15T17:29:56.752Z,18.12
2023-05-15T17:32:30.333Z,18.09
2023-05-15T17:35:05.831Z,18.05
2023-05-15T17:37:39.070Z,18.00
2023-05-15T17:40:14.172Z,17.96
2023-05-15T17:42:47.025Z,17.91
2023-05-15T17:45:20.404Z,17.88
2023-05-15T17:47:53.544Z,17.83
2023-05-15T17:50:26.632Z,17.78
2023-05-15T17:52:59.890Z,17.73
2023-05-15T17:55:34.784Z,17.70
2023-05-15T17:58:07.874Z,17.65
2023-05-15T18:00:40.774Z,17.61
2023-05-15T18:03:14.083Z,17.56
2023-05-15T18:05:47.499Z,17.53
2023-05-15T18:08:20.497Z,17.47
2023-05-15T18:10:54.572Z,17.44
2023-05-15T18:13:27.481Z,17.40
2023-05-15T18:16:00.337Z,17.33
2023-05-15T18:18:33.268Z,17.30
2023-05-15T18:21:06.554Z,17.23
2023-05-15T18:23:39.278Z,17.20
2023-05-15T18:26:13.386Z,17.15
2023-05-15T18:28:46.190Z,17.10
2023-05-15T18:31:19.269Z,17.07
2023-05-15T18:33:52.422Z,17.01
2023-05-15T18:36:25.777Z,16.99
2023-05-15T18:38:58.538Z,16.94
2023-05-15T18:41:32.679Z,16.91
2023-05-15T18:44:05.916Z,16.88
2023-05-15T18:46:39.034Z,16.85
2023-05-15T18:49:11.849Z,16.80
2023-05-15T18:51:44.757Z,16.79
2023-05-15T18:54:17.781Z,16.75
2023-05-15T18:56:51.905Z,16.72
2023-05-15T18:59:24.870Z,16.67
2023-05-15T19:01:57.742Z,16.64
2023-05-15T19:04:30.577Z,16.60
2023-05-15T19:07:03.341Z,16.57
2023-05-15T19:09:36.303Z,16.54
2023-05-15T19:12:10.513Z,16.51
2023-05-15T19:14:43.435Z,16.49
2023-05-15T19:17:16.192Z,16.46
2023-05-15T19:19:49.334Z,16.42
2023-05-15T19:22:22.102Z,16.41
2023-05-15T19:24:55.291Z,16.40
2023-05-15T19:27:29.399Z,16.35
2023-05-15T19:30:04.310Z,16.32
2023-05-15T19:32:37.274Z,16.30
2023-05-15T19:35:10.636Z,16.28
2023-05-15T19:37:43.775Z,16.27
2023-05-15T19:40:17.150Z,16.26
2023-05-15T19:42:51.309Z,16.22
2023-05-15T19:45:24.261Z,16.21
2023-05-15T19:47:57.429Z,16.20
2023-05-15T19:50:32.639Z,16.17
2023-05-15T19:53:06.216Z,16.16
2023-05-15T19:55:39.164Z,16.15
2023-05-15T19:58:13.320Z,16.13
2023-05-15T20:00:46.290Z,16.11
2023-05-15T20:03:19.674Z,16.10
2023-05-15T20:05:53.390Z,16.09
2023-05-15T20:08:26.587Z,16.07
2023-05-15T20:10:59.281Z,16.04
2023-05-15T20:13:34.418Z,16.04
2023-05-15T20:16:10.922Z,16.01
2023-05-15T20:18:45.333Z,16.00
2023-05-15T20:21:18.466Z,15.97
2023-05-15T20:23:51.282Z,15.98
2023-05-15T20:26:24.416Z,15.95
2023-05-15T20:28:58.522Z,15.94
2023-05-15T20:31:31.403Z,15.92
2023-05-15T20:34:06.055Z,15.93
2023-05-15T20:36:40.041Z,15.91
2023-05-15T20:39:14.243Z,15.93
2023-05-15T20:41:47.238Z,15.91
2023-05-15T20:44:21.384Z,15.90
2023-05-15T20:46:54.206Z,15.90
2023-05-15T20:49:26.971Z,15.89
2023-05-15T20:51:59.717Z,15.88
2023-05-15T20:54:32.809Z,15.87
2023-05-15T20:57:06.772Z,15.85
2023-05-15T20:59:41.253Z,15.83
2023-05-15T21:02:14.107Z,15.83
2023-05-15T21:04:47.112Z,15.81
2023-05-15T21:07:20.573Z,15.79
2023-05-15T21:09:53.524Z,15.77
2023-05-15T21:12:26.663Z,15.76
2023-05-15T21:15:00.783Z,15.72
2023-05-15T21:17:33.690Z,15.71
2023-05-15T21:20:07.217Z,15.66
2023-05-15T21:22:40.385Z,15.64
2023-05-15T21:25:13.158Z,15.60
2023-05-15T21:27:46.006Z,15.58
2023-05-15T21:30:20.710Z,15.53
2023-05-15T21:32:53.622Z,15.47
2023-05-15T21:35:29.068Z,15.41
2023-05-15T21:38:02.191Z,15.35
2023-05-15T21:40:34.896Z,15.28
2023-05-15T21:43:07.720Z,15.21
2023-05-15T21:45:42.119Z,15.14
2023-05-15T21:48:15.244Z,15.04
2023-05-15T21:50:48.220Z,14.97
2023-05-15T21:53:20.872Z,14.91
2023-05-15T21:55:55.773Z,14.81
2023-05-15T21:58:28.822Z,14.74
2023-05-15T22:01:03.062Z,14.67
2023-05-15T22:03:35.967Z,14.63
2023-05-15T22:06:09.203Z,14.57
2023-05-15T22:08:42.629Z,14.53
2023-05-15T22:11:15.668Z,14.48
2023-05-15T22:13:48.458Z,14.42
2023-05-15T22:16:23.027Z,14.35
2023-05-15T22:18:56.092Z,14.30
2023-05-15T22:21:28.808Z,14.24
2023-05-15T22:24:04.234Z,14.19
2023-05-15T22:26:36.931Z,14.12
2023-05-15T22:29:09.752Z,14.06
2023-05-15T22:31:44.158Z,14.02
2023-05-15T22:34:17.010Z,13.96
2023-05-15T22:36:50.942Z,13.91
2023-05-15T22:39:24.227Z,13.85
2023-05-15T22:41:57.030Z,13.81
2023-05-15T22:44:29.864Z,13.76
2023-05-15T22:47:04.071Z,13.73
2023-05-15T22:49:37.896Z,13.67
2023-05-15T22:52:12.954Z,13.64
2023-05-15T22:54:47.011Z,13.60
2023-05-15T22:57:19.955Z,13.57
2023-05-15T22:59:52.815Z,13.55
2023-05-15T23:02:27.128Z,13.52
2023-05-15T23:05:00.334Z,13.53
2023-05-15T23:07:33.152Z,13.52
2023-05-15T23:10:07.014Z,13.53
2023-05-15T23:12:40.271Z,13.54
2023-05-15T23:15:13.524Z,13.59
2023-05-15T23:17:47.883Z,13.61
2023-05-15T23:20:20.684Z,13.66
2023-05-15T23:22:53.742Z,13.70
2023-05-15T23:25:27.453Z,13.75
2023-05-15T23:28:00.512Z,13.79
2023-05-15T23:30:33.936Z,13.84
2023-05-15T23:33:08.341Z,13.89
2023-05-15T23:35:41.307Z,13.94
2023-05-15T23:38:14.135Z,13.97
2023-05-15T23:40:46.941Z,14.04
2023-05-15T23:43:19.798Z,14.07
2023-05-15T23:45:52.938Z,14.10
2023-05-15T23:48:28.079Z,14.15
2023-05-15T23:51:01.064Z,14.19
2023-05-15T23:53:33.767Z,14.21
2023-05-15T23:56:08.873Z,14.25
2023-05-15T23:58:41.763Z,14.27
